Botkins, Ohio
Current Conditions -  °F | °C
As of 6:14 AM on Wednesday 22 Oct 2014 (Local Time) from KAXV Reporting Station
Overcast Overcast  
Wind Chill: 39°   Ceiling: 1400
Heat Index: 43°   Visibility: 10mi
Dew Point: 41°   Wind: 7mph
Humidity: 93%   Direction: 350°N
Pressure: 30.26"   Gusts: NA
Location:  40.47°N, 84.18°W
Report Text: KAXV 221014Z AUTO 35006KT 10SM OVC014 06/05 A3026 RMK AO2
Loading
Personal Weather Stations






























Interactive Weather Map
Tropical Storm Tracking
New forecast layout! Learn more

10-Day Weather Forecast

Advertisements
Track Severe Weather on mobile